Time;durP1;ratioP1;P1;durP2;ratioP2;P2;SDS_P1;SDS_P2;PMS_P1;PMS_P2;Temp;Humidity;BMP_temperature;BMP_pressure;BME280_temperature;BME280_humidity;BME280_pressure;Samples;Min_cycle;Max_cycle;Signal;HPM_P1;HPM_P2
2024/01/26 00:02:13;;;;;;;8.45;1.83;;;;;;;6.80;50.12;99615.56;4915757;28;20103;-96
2024/01/26 00:04:39;;;;;;;10.27;2.20;;;;;;;6.68;50.14;99620.13;4915482;29;20031;-96
2024/01/26 00:07:05;;;;;;;12.30;1.90;;;;;;;6.63;50.52;99607.47;4915523;29;20067;-96
2024/01/26 00:09:32;;;;;;;5.15;2.22;;;;;;;6.64;50.63;99610.97;4916369;29;20553;-96
2024/01/26 00:11:57;;;;;;;6.20;1.98;;;;;;;6.52;50.25;99602.19;4917120;29;20028;-96
2024/01/26 00:14:23;;;;;;;8.00;2.33;;;;;;;6.52;50.77;99597.63;4914130;29;20043;-96
2024/01/26 00:16:49;;;;;;;7.30;1.90;;;;;;;6.46;51.10;99601.25;4916250;29;20027;-96
2024/01/26 00:19:15;;;;;;;5.13;1.98;;;;;;;6.42;50.98;99600.09;4917730;29;20028;-96
2024/01/26 00:21:41;;;;;;;6.05;1.95;;;;;;;6.43;51.28;99607.88;4930264;29;20023;-96
2024/01/26 00:24:11;;;;;;;7.07;1.80;;;;;;;6.32;51.33;99599.88;4915017;29;20038;-96
2024/01/26 00:26:37;;;;;;;7.85;1.98;;;;;;;6.23;51.78;99586.06;4916603;29;20011;-96
2024/01/26 01:34:11;;;;;;;9.23;2.00;;;;;;;6.78;49.80;99611.50;5457353;23;20035;-95
2024/01/26 01:36:37;;;;;;;9.60;1.83;;;;;;;6.73;50.29;99606.88;4915274;29;20044;-95
2024/01/26 01:39:10;;;;;;;6.95;2.03;;;;;;;6.72;49.91;99599.09;4917969;29;20031;-96
2024/01/26 01:41:38;;;;;;;4.55;1.67;;;;;;;6.78;50.03;99593.59;4910869;29;20044;-96
2024/01/26 01:44:05;;;;;;;6.20;1.90;;;;;;;6.81;49.58;99598.47;4918613;29;20107;-96
2024/01/26 01:49:07;;;;;;;7.07;1.63;;;;;;;7.09;49.53;99616.41;5364832;23;20052;-96
2024/01/26 01:51:33;;;;;;;5.82;1.85;;;;;;;7.06;49.52;99611.53;4881389;29;20027;-96
2024/01/26 01:53:59;;;;;;;6.93;1.70;;;;;;;6.96;49.54;99586.44;4883157;29;20031;-92
2024/01/26 01:56:26;;;;;;;8.50;1.60;;;;;;;7.09;49.21;99599.53;4887156;29;20028;-94
2024/01/26 01:58:52;;;;;;;10.02;2.20;;;;;;;6.93;49.44;99581.53;4898986;29;20032;-92
2024/01/26 02:01:20;;;;;;;6.82;1.80;;;;;;;6.98;49.51;99597.72;4898721;29;20035;-94
2024/01/26 02:03:49;;;;;;;9.65;2.47;;;;;;;7.01;49.38;99587.31;4899302;29;20024;-93
2024/01/26 02:06:17;;;;;;;13.65;2.60;;;;;;;6.90;49.40;99574.00;4898832;29;20032;-94
2024/01/26 02:08:46;;;;;;;6.22;2.03;;;;;;;7.06;49.51;99600.81;4899154;29;20054;-94
2024/01/26 02:11:12;;;;;;;3.25;1.35;;;;;;;6.97;49.07;99582.69;4898587;29;20503;-93
2024/01/26 02:13:39;;;;;;;9.05;2.00;;;;;;;7.00;49.50;99591.06;4899237;29;20020;-95
2024/01/26 02:16:05;;;;;;;6.70;1.75;;;;;;;7.24;49.00;99623.91;4899340;29;20061;-95
2024/01/26 02:18:35;;;;;;;7.82;1.75;;;;;;;7.20;49.08;99611.22;4883728;29;20491;-93
2024/01/26 02:21:01;;;;;;;4.75;1.90;;;;;;;7.15;49.03;99603.91;4899576;29;20024;-94
2024/01/26 02:23:27;;;;;;;9.75;1.70;;;;;;;7.20;49.26;99606.69;4883086;29;20032;-94
2024/01/26 02:25:54;;;;;;;6.85;2.10;;;;;;;7.20;48.99;99619.25;4914169;29;20471;-96
2024/01/26 02:28:20;;;;;;;9.32;2.00;;;;;;;7.30;49.01;99622.13;4881998;29;20051;-96
2024/01/26 02:30:46;;;;;;;10.95;2.42;;;;;;;7.41;49.08;99634.66;4895186;29;20071;-96
2024/01/26 02:33:13;;;;;;;7.82;1.77;;;;;;;7.31;49.06;99617.59;4897443;29;20092;-96
2024/01/26 02:35:43;;;;;;;7.47;1.70;;;;;;;7.24;48.79;99613.22;4899729;29;20040;-96
2024/01/26 02:38:10;;;;;;;9.43;1.88;;;;;;;7.36;49.12;99620.34;4899148;29;20119;-96
2024/01/26 02:43:17;;;;;;;8.27;2.22;;;;;;;7.44;48.83;99626.13;5037131;23;20052;-96
2024/01/26 02:45:46;;;;;;;3.80;1.70;;;;;;;7.37;48.85;99613.97;4899283;29;20119;-96
2024/01/26 02:48:14;;;;;;;8.88;2.15;;;;;;;7.63;48.77;99647.34;4884650;29;20039;-95
2024/01/26 02:50:40;;;;;;;3.85;1.50;;;;;;;7.40;48.94;99621.50;4883512;29;20028;-96
2024/01/26 02:53:05;;;;;;;5.32;1.77;;;;;;;7.44;48.82;99625.31;4959428;23;20062;-95
2024/01/26 02:55:31;;;;;;;6.88;2.00;;;;;;;7.46;49.02;99624.03;4915144;29;20111;-96
2024/01/26 02:57:57;;;;;;;6.60;2.22;;;;;;;7.52;49.01;99645.56;4915254;29;20032;-96
2024/01/26 03:00:26;;;;;;;4.82;1.70;;;;;;;7.49;48.77;99634.28;4914592;29;20471;-95
2024/01/26 03:02:52;;;;;;;8.15;2.05;;;;;;;7.49;48.94;99639.63;4928309;29;20032;-95
2024/01/26 03:05:20;;;;;;;7.63;1.80;;;;;;;7.56;49.13;99646.69;4928935;29;20030;-96
2024/01/26 03:07:46;;;;;;;9.57;2.13;;;;;;;7.46;49.00;99628.56;4913872;29;20028;-96
2024/01/26 03:13:42;;;;;;;8.43;1.98;;;;;;;7.57;49.26;99654.47;4952981;29;20100;-96
2024/01/26 03:16:10;;;;;;;8.40;2.28;;;;;;;7.43;49.54;99634.44;4932267;29;20038;-96
2024/01/26 03:18:36;;;;;;;9.15;2.42;;;;;;;7.38;49.47;99629.78;4913656;29;20031;-96
2024/01/26 03:21:01;;;;;;;6.30;1.75;;;;;;;7.31;49.61;99622.97;4916796;29;20508;-96
2024/01/26 03:23:30;;;;;;;9.27;2.00;;;;;;;7.17;50.16;99609.03;4919394;29;20023;-96
2024/01/26 03:25:57;;;;;;;7.65;2.20;;;;;;;7.17;50.14;99612.53;4912341;29;20048;-96
2024/01/26 03:28:22;;;;;;;5.88;2.05;;;;;;;7.33;49.60;99624.34;4880075;29;20020;-96
2024/01/26 03:30:48;;;;;;;8.57;1.92;;;;;;;7.33;49.30;99629.69;4879286;29;20040;-96
2024/01/26 03:33:17;;;;;;;4.72;1.70;;;;;;;7.39;49.69;99625.25;4882741;29;20446;-96
2024/01/26 03:35:43;;;;;;;9.60;2.20;;;;;;;7.29;49.52;99617.84;4883405;29;20044;-96
2024/01/26 03:38:09;;;;;;;6.93;1.80;;;;;;;7.29;49.87;99625.88;4881071;29;20047;-96
2024/01/26 03:40:35;;;;;;;6.40;1.90;;;;;;;7.11;50.88;99610.00;4896356;29;20032;-96
2024/01/26 03:45:37;;;;;;;7.68;2.17;;;;;;;7.24;50.21;99634.63;5389374;23;20062;-95
2024/01/26 03:48:06;;;;;;;6.35;2.08;;;;;;;7.04;50.45;99623.53;4920319;28;20040;-96
2024/01/26 03:50:32;;;;;;;6.38;1.95;;;;;;;7.05;50.50;99620.59;4916081;29;20027;-95
2024/01/26 03:52:58;;;;;;;10.00;2.80;;;;;;;7.07;50.64;99633.75;4918128;29;20036;-96
2024/01/26 03:55:23;;;;;;;4.22;1.60;;;;;;;6.96;50.65;99627.41;4920992;29;20034;-95
2024/01/26 04:05:45;;;;;;;7.40;2.10;;;;;;;6.72;51.52;99631.19;4934880;29;20060;-96
2024/01/26 04:08:24;;;;;;;6.13;2.13;;;;;;;6.75;51.44;99633.41;4929807;29;20040;-96
2024/01/26 04:10:52;;;;;;;4.43;2.25;;;;;;;6.78;51.40;99633.72;4901941;29;20095;-96
2024/01/26 04:13:21;;;;;;;7.45;1.90;;;;;;;6.77;51.55;99639.34;4901570;29;20110;-96
2024/01/26 04:15:47;;;;;;;10.77;2.42;;;;;;;6.79;51.28;99648.75;4904268;29;20024;-91
2024/01/26 04:18:12;;;;;;;6.75;2.10;;;;;;;6.75;51.27;99633.41;4902812;29;20035;-92
2024/01/26 04:20:38;;;;;;;5.28;2.13;;;;;;;6.71;51.65;99632.25;4886081;29;20111;-91
2024/01/26 04:23:04;;;;;;;6.32;1.92;;;;;;;6.75;51.85;99634.22;4889526;29;20028;-96
2024/01/26 04:25:29;;;;;;;6.72;2.17;;;;;;;6.48;51.82;99607.97;4892887;29;20142;-95
2024/01/26 04:27:55;;;;;;;6.85;2.15;;;;;;;6.37;52.21;99611.50;4892947;29;20024;-96
2024/01/26 04:30:21;;;;;;;7.93;2.50;;;;;;;6.44;52.25;99608.69;4894125;29;20044;-96
2024/01/26 04:32:46;;;;;;;6.38;2.15;;;;;;;6.59;52.39;99640.28;4892228;29;20118;-96
2024/01/26 04:35:12;;;;;;;6.93;2.17;;;;;;;6.34;52.39;99611.16;4890464;29;20111;-95
2024/01/26 04:37:37;;;;;;;9.45;2.33;;;;;;;6.44;52.38;99644.28;4891415;29;20039;-96
2024/01/26 04:40:04;;;;;;;6.65;2.40;;;;;;;6.26;52.42;99621.13;4896775;29;20404;-96
2024/01/26 04:42:33;;;;;;;8.50;2.00;;;;;;;6.37;52.62;99640.09;4898374;29;20024;-96
2024/01/26 04:45:01;;;;;;;6.90;2.40;;;;;;;6.29;52.94;99633.25;4896968;29;20031;-96
2024/01/26 04:47:27;;;;;;;7.68;2.05;;;;;;;6.16;53.32;99636.16;4893446;29;20032;-96
2024/01/26 04:49:53;;;;;;;9.48;2.45;;;;;;;6.18;53.34;99634.84;4896115;29;20039;-96
2024/01/26 04:52:24;;;;;;;8.30;2.28;;;;;;;6.17;53.24;99653.81;4893095;29;20020;-95
2024/01/26 04:54:50;;;;;;;7.50;2.40;;;;;;;6.24;53.55;99647.28;4892437;29;20087;-95
2024/01/26 04:57:15;;;;;;;6.55;2.08;;;;;;;6.21;53.04;99634.41;4894423;29;20054;-96
2024/01/26 04:59:41;;;;;;;12.13;2.15;;;;;;;6.27;53.23;99646.84;4892778;29;20024;-96
2024/01/26 05:02:07;;;;;;;12.70;2.20;;;;;;;6.26;53.36;99655.91;4892240;29;20463;-95
2024/01/26 05:04:33;;;;;;;6.35;2.38;;;;;;;6.06;53.61;99628.72;4894234;29;20119;-96
2024/01/26 05:07:02;;;;;;;7.97;2.40;;;;;;;6.15;53.37;99634.53;4895168;29;20119;-96
2024/01/26 05:09:38;;;;;;;9.25;2.95;;;;;;;6.13;53.80;99642.78;4912224;29;20042;-96
2024/01/26 05:12:04;;;;;;;9.65;2.40;;;;;;;6.20;53.74;99664.84;4896868;29;20031;-95
2024/01/26 05:14:30;;;;;;;8.85;2.78;;;;;;;6.10;53.45;99634.41;4893249;29;20049;-96
2024/01/26 05:16:55;;;;;;;5.53;2.13;;;;;;;6.13;53.60;99648.13;4894991;29;20024;-95
2024/01/26 05:19:24;;;;;;;7.07;2.28;;;;;;;6.24;53.44;99658.00;4895319;29;20052;-95
2024/01/26 05:21:51;;;;;;;6.85;2.13;;;;;;;6.22;53.40;99662.75;4894178;29;20024;-96
2024/01/26 05:24:17;;;;;;;6.15;2.20;;;;;;;6.13;53.42;99650.00;4896862;29;20024;-96
2024/01/26 05:27:05;;;;;;;7.78;2.58;;;;;;;6.06;53.41;99639.41;4895599;29;20019;-96
2024/01/26 05:29:35;;;;;;;8.43;2.60;;;;;;;6.29;52.93;99676.03;4906780;29;20124;-96
2024/01/26 05:32:01;;;;;;;6.25;2.10;;;;;;;6.17;52.90;99662.66;4911968;29;20035;-95
2024/01/26 05:34:27;;;;;;;8.57;2.40;;;;;;;6.30;53.09;99676.84;4893036;29;20032;-96
2024/01/26 05:36:53;;;;;;;4.90;2.10;;;;;;;6.15;53.27;99672.78;4894839;29;20031;-96
2024/01/26 05:39:18;;;;;;;9.88;2.40;;;;;;;6.08;52.95;99666.72;4894794;29;20035;-96
2024/01/26 05:41:47;;;;;;;5.45;2.00;;;;;;;6.13;52.82;99664.16;4890500;29;20398;-95
2024/01/26 05:44:12;;;;;;;10.18;2.58;;;;;;;6.30;53.11;99692.88;4896066;29;20024;-96
2024/01/26 05:47:08;;;;;;;6.47;2.75;;;;;;;6.23;52.86;99698.34;4898952;29;20484;-95
2024/01/26 05:49:45;;;;;;;10.45;2.38;;;;;;;6.04;53.08;99674.41;4931811;29;20016;-96
2024/01/26 05:52:28;;;;;;;10.63;2.58;;;;;;;5.94;53.45;99670.63;4921969;29;20024;-95
2024/01/26 05:54:59;;;;;;;6.40;2.42;;;;;;;6.05;53.70;99688.56;5038249;23;20067;-95
2024/01/26 05:57:28;;;;;;;4.53;2.13;;;;;;;6.20;52.68;99704.16;4913113;29;20459;-94
2024/01/26 06:00:06;;;;;;;8.18;2.80;;;;;;;6.25;52.58;99712.31;4901578;29;20051;-96
2024/01/26 06:07:45;;;;;;;11.32;5.22;;;;;;;6.19;52.51;99705.22;4924640;29;20055;-96
